sensor_id;sensor_type;location;lat;lon;timestamp;P1;durP1;ratioP1;P2;durP2;ratioP2
80539;SDS011;69869;48.036;15.780;2023-05-07T00:01:55;17.75;;;6.55;;
80539;SDS011;69869;48.036;15.780;2023-05-07T00:04:21;13.20;;;6.20;;
80539;SDS011;69869;48.036;15.780;2023-05-07T00:06:47;12.50;;;6.15;;
80539;SDS011;69869;48.036;15.780;2023-05-07T00:09:13;16.65;;;6.45;;
80539;SDS011;69869;48.036;15.780;2023-05-07T00:11:39;16.25;;;6.85;;
80539;SDS011;69869;48.036;15.780;2023-05-07T00:14:05;10.65;;;6.00;;
80539;SDS011;69869;48.036;15.780;2023-05-07T00:16:30;12.95;;;6.05;;
80539;SDS011;69869;48.036;15.780;2023-05-07T00:18:56;12.65;;;5.90;;
80539;SDS011;69869;48.036;15.780;2023-05-07T00:21:22;21.33;;;6.10;;
80539;SDS011;69869;48.036;15.780;2023-05-07T00:23:47;12.75;;;5.95;;
80539;SDS011;69869;48.036;15.780;2023-05-07T00:26:13;18.13;;;6.00;;
80539;SDS011;69869;48.036;15.780;2023-05-07T00:28:38;21.20;;;5.90;;
80539;SDS011;69869;48.036;15.780;2023-05-07T00:31:04;18.98;;;6.40;;
80539;SDS011;69869;48.036;15.780;2023-05-07T00:33:30;24.00;;;6.22;;
80539;SDS011;69869;48.036;15.780;2023-05-07T00:35:55;15.68;;;5.93;;
80539;SDS011;69869;48.036;15.780;2023-05-07T00:38:21;24.08;;;6.30;;
80539;SDS011;69869;48.036;15.780;2023-05-07T00:40:47;17.67;;;6.05;;
80539;SDS011;69869;48.036;15.780;2023-05-07T00:43:12;18.80;;;5.93;;
80539;SDS011;69869;48.036;15.780;2023-05-07T00:45:38;15.93;;;5.68;;
80539;SDS011;69869;48.036;15.780;2023-05-07T00:48:04;18.92;;;6.20;;
80539;SDS011;69869;48.036;15.780;2023-05-07T00:50:30;10.82;;;5.43;;
80539;SDS011;69869;48.036;15.780;2023-05-07T00:52:57;14.13;;;5.80;;
80539;SDS011;69869;48.036;15.780;2023-05-07T00:55:24;16.35;;;6.10;;
80539;SDS011;69869;48.036;15.780;2023-05-07T00:57:50;14.48;;;5.88;;
80539;SDS011;69869;48.036;15.780;2023-05-07T01:00:16;15.07;;;5.05;;
80539;SDS011;69869;48.036;15.780;2023-05-07T01:02:43;19.02;;;5.80;;
80539;SDS011;69869;48.036;15.780;2023-05-07T01:05:10;15.98;;;5.55;;
80539;SDS011;69869;48.036;15.780;2023-05-07T01:07:39;10.80;;;5.28;;
80539;SDS011;69869;48.036;15.780;2023-05-07T01:10:05;11.80;;;5.63;;
80539;SDS011;69869;48.036;15.780;2023-05-07T01:12:32;15.55;;;6.00;;
80539;SDS011;69869;48.036;15.780;2023-05-07T01:15:00;19.92;;;5.22;;
80539;SDS011;69869;48.036;15.780;2023-05-07T01:17:26;13.57;;;5.38;;
80539;SDS011;69869;48.036;15.780;2023-05-07T01:19:52;14.20;;;5.40;;
80539;SDS011;69869;48.036;15.780;2023-05-07T01:22:39;14.50;;;5.30;;
80539;SDS011;69869;48.036;15.780;2023-05-07T01:25:05;15.05;;;6.15;;
80539;SDS011;69869;48.036;15.780;2023-05-07T01:27:32;9.85;;;5.00;;
80539;SDS011;69869;48.036;15.780;2023-05-07T01:30:02;17.30;;;5.78;;
80539;SDS011;69869;48.036;15.780;2023-05-07T01:32:31;24.65;;;5.50;;
80539;SDS011;69869;48.036;15.780;2023-05-07T01:35:00;27.15;;;5.97;;
80539;SDS011;69869;48.036;15.780;2023-05-07T01:37:28;24.30;;;5.45;;
80539;SDS011;69869;48.036;15.780;2023-05-07T01:39:54;20.98;;;5.65;;
80539;SDS011;69869;48.036;15.780;2023-05-07T01:42:21;17.52;;;5.50;;
80539;SDS011;69869;48.036;15.780;2023-05-07T01:44:47;17.92;;;5.57;;
80539;SDS011;69869;48.036;15.780;2023-05-07T01:47:13;17.20;;;5.30;;
80539;SDS011;69869;48.036;15.780;2023-05-07T01:49:39;12.57;;;5.05;;
80539;SDS011;69869;48.036;15.780;2023-05-07T01:52:06;19.05;;;5.10;;
80539;SDS011;69869;48.036;15.780;2023-05-07T01:54:32;16.42;;;5.50;;
80539;SDS011;69869;48.036;15.780;2023-05-07T01:56:58;25.67;;;5.18;;
80539;SDS011;69869;48.036;15.780;2023-05-07T01:59:23;19.85;;;5.68;;
80539;SDS011;69869;48.036;15.780;2023-05-07T02:01:49;17.15;;;5.22;;
80539;SDS011;69869;48.036;15.780;2023-05-07T02:04:15;17.35;;;5.03;;
80539;SDS011;69869;48.036;15.780;2023-05-07T02:06:40;18.67;;;5.57;;
80539;SDS011;69869;48.036;15.780;2023-05-07T02:09:06;16.83;;;5.15;;
80539;SDS011;69869;48.036;15.780;2023-05-07T02:11:33;16.40;;;5.25;;
80539;SDS011;69869;48.036;15.780;2023-05-07T02:13:59;13.32;;;5.00;;
80539;SDS011;69869;48.036;15.780;2023-05-07T02:16:25;17.17;;;4.90;;
80539;SDS011;69869;48.036;15.780;2023-05-07T02:18:50;17.15;;;4.95;;
80539;SDS011;69869;48.036;15.780;2023-05-07T02:21:16;15.63;;;5.05;;
80539;SDS011;69869;48.036;15.780;2023-05-07T02:23:42;14.52;;;5.10;;
80539;SDS011;69869;48.036;15.780;2023-05-07T02:26:08;15.13;;;4.72;;
80539;SDS011;69869;48.036;15.780;2023-05-07T02:28:33;15.50;;;5.07;;
80539;SDS011;69869;48.036;15.780;2023-05-07T02:31:02;11.25;;;4.63;;
80539;SDS011;69869;48.036;15.780;2023-05-07T02:33:28;11.00;;;4.97;;
80539;SDS011;69869;48.036;15.780;2023-05-07T02:35:54;18.38;;;4.70;;
80539;SDS011;69869;48.036;15.780;2023-05-07T02:38:20;13.50;;;4.90;;
80539;SDS011;69869;48.036;15.780;2023-05-07T02:40:47;11.85;;;4.72;;
80539;SDS011;69869;48.036;15.780;2023-05-07T02:43:12;12.85;;;4.43;;
80539;SDS011;69869;48.036;15.780;2023-05-07T02:45:38;10.77;;;4.35;;
80539;SDS011;69869;48.036;15.780;2023-05-07T02:48:04;15.50;;;4.75;;
80539;SDS011;69869;48.036;15.780;2023-05-07T02:50:31;17.60;;;4.82;;
80539;SDS011;69869;48.036;15.780;2023-05-07T02:52:57;14.27;;;4.72;;
80539;SDS011;69869;48.036;15.780;2023-05-07T02:55:23;16.60;;;4.80;;
80539;SDS011;69869;48.036;15.780;2023-05-07T02:57:49;12.43;;;4.80;;
80539;SDS011;69869;48.036;15.780;2023-05-07T03:00:16;13.73;;;4.70;;
80539;SDS011;69869;48.036;15.780;2023-05-07T03:02:43;18.60;;;4.90;;
80539;SDS011;69869;48.036;15.780;2023-05-07T03:05:09;14.77;;;4.40;;
80539;SDS011;69869;48.036;15.780;2023-05-07T03:07:36;13.52;;;4.13;;
80539;SDS011;69869;48.036;15.780;2023-05-07T03:10:02;16.20;;;4.85;;
80539;SDS011;69869;48.036;15.780;2023-05-07T03:12:28;12.07;;;4.43;;
80539;SDS011;69869;48.036;15.780;2023-05-07T03:14:55;11.75;;;4.70;;
80539;SDS011;69869;48.036;15.780;2023-05-07T03:17:21;11.75;;;4.53;;
80539;SDS011;69869;48.036;15.780;2023-05-07T03:19:46;11.02;;;4.30;;
80539;SDS011;69869;48.036;15.780;2023-05-07T03:22:12;11.77;;;4.43;;
80539;SDS011;69869;48.036;15.780;2023-05-07T03:24:38;11.82;;;4.05;;
80539;SDS011;69869;48.036;15.780;2023-05-07T03:27:03;13.65;;;4.30;;
80539;SDS011;69869;48.036;15.780;2023-05-07T03:29:29;10.45;;;4.10;;
80539;SDS011;69869;48.036;15.780;2023-05-07T03:31:55;16.85;;;4.53;;
80539;SDS011;69869;48.036;15.780;2023-05-07T03:34:21;9.25;;;4.07;;
80539;SDS011;69869;48.036;15.780;2023-05-07T03:36:48;10.65;;;4.45;;
80539;SDS011;69869;48.036;15.780;2023-05-07T03:39:14;12.98;;;4.15;;
80539;SDS011;69869;48.036;15.780;2023-05-07T03:41:39;11.93;;;4.30;;
80539;SDS011;69869;48.036;15.780;2023-05-07T03:44:05;10.68;;;4.20;;
80539;SDS011;69869;48.036;15.780;2023-05-07T03:46:31;8.75;;;4.18;;
80539;SDS011;69869;48.036;15.780;2023-05-07T03:48:58;14.57;;;4.20;;
80539;SDS011;69869;48.036;15.780;2023-05-07T03:51:24;10.80;;;4.15;;
80539;SDS011;69869;48.036;15.780;2023-05-07T03:53:50;12.95;;;4.00;;
80539;SDS011;69869;48.036;15.780;2023-05-07T03:56:19;15.02;;;4.43;;
80539;SDS011;69869;48.036;15.780;2023-05-07T03:58:46;12.20;;;3.90;;
80539;SDS011;69869;48.036;15.780;2023-05-07T04:01:12;8.60;;;4.00;;
80539;SDS011;69869;48.036;15.780;2023-05-07T04:03:38;16.75;;;4.10;;
80539;SDS011;69869;48.036;15.780;2023-05-07T04:06:03;22.60;;;4.50;;
80539;SDS011;69869;48.036;15.780;2023-05-07T04:08:29;15.80;;;4.28;;
80539;SDS011;69869;48.036;15.780;2023-05-07T04:10:55;16.45;;;4.10;;
80539;SDS011;69869;48.036;15.780;2023-05-07T04:13:22;16.30;;;4.10;;
80539;SDS011;69869;48.036;15.780;2023-05-07T04:15:48;23.38;;;4.25;;
80539;SDS011;69869;48.036;15.780;2023-05-07T04:18:14;19.48;;;4.45;;
80539;SDS011;69869;48.036;15.780;2023-05-07T04:20:40;15.57;;;4.25;;
80539;SDS011;69869;48.036;15.780;2023-05-07T04:23:06;17.67;;;4.22;;
80539;SDS011;69869;48.036;15.780;2023-05-07T04:25:32;9.38;;;3.88;;
80539;SDS011;69869;48.036;15.780;2023-05-07T04:27:58;17.50;;;3.90;;
80539;SDS011;69869;48.036;15.780;2023-05-07T04:30:23;13.02;;;3.90;;
80539;SDS011;69869;48.036;15.780;2023-05-07T04:32:49;10.52;;;4.18;;
80539;SDS011;69869;48.036;15.780;2023-05-07T04:35:15;11.15;;;3.97;;
80539;SDS011;69869;48.036;15.780;2023-05-07T04:37:41;10.13;;;3.88;;
80539;SDS011;69869;48.036;15.780;2023-05-07T04:40:07;10.52;;;4.05;;
80539;SDS011;69869;48.036;15.780;2023-05-07T04:42:33;14.05;;;3.80;;
80539;SDS011;69869;48.036;15.780;2023-05-07T04:44:58;8.93;;;3.60;;
80539;SDS011;69869;48.036;15.780;2023-05-07T04:47:25;13.07;;;3.95;;
80539;SDS011;69869;48.036;15.780;2023-05-07T04:49:50;9.48;;;4.05;;
80539;SDS011;69869;48.036;15.780;2023-05-07T04:52:16;9.30;;;3.92;;
80539;SDS011;69869;48.036;15.780;2023-05-07T04:54:41;9.55;;;3.90;;
80539;SDS011;69869;48.036;15.780;2023-05-07T04:57:07;5.88;;;3.47;;
80539;SDS011;69869;48.036;15.780;2023-05-07T04:59:33;10.73;;;4.05;;
80539;SDS011;69869;48.036;15.780;2023-05-07T05:01:59;8.07;;;3.30;;
80539;SDS011;69869;48.036;15.780;2023-05-07T05:04:24;8.10;;;3.60;;
80539;SDS011;69869;48.036;15.780;2023-05-07T05:06:50;10.13;;;3.40;;
80539;SDS011;69869;48.036;15.780;2023-05-07T05:09:16;5.93;;;3.20;;
80539;SDS011;69869;48.036;15.780;2023-05-07T05:11:42;9.32;;;3.58;;
80539;SDS011;69869;48.036;15.780;2023-05-07T05:14:08;7.28;;;3.55;;
80539;SDS011;69869;48.036;15.780;2023-05-07T05:16:33;8.88;;;3.63;;
80539;SDS011;69869;48.036;15.780;2023-05-07T05:19:01;9.18;;;3.60;;
80539;SDS011;69869;48.036;15.780;2023-05-07T05:21:27;8.55;;;3.28;;
80539;SDS011;69869;48.036;15.780;2023-05-07T05:23:53;7.53;;;3.30;;
80539;SDS011;69869;48.036;15.780;2023-05-07T05:26:19;8.75;;;3.33;;
80539;SDS011;69869;48.036;15.780;2023-05-07T05:28:46;8.52;;;3.70;;
80539;SDS011;69869;48.036;15.780;2023-05-07T05:31:12;12.13;;;3.45;;
80539;SDS011;69869;48.036;15.780;2023-05-07T05:33:37;14.93;;;3.50;;
80539;SDS011;69869;48.036;15.780;2023-05-07T05:36:03;8.05;;;3.38;;
80539;SDS011;69869;48.036;15.780;2023-05-07T05:38:29;12.18;;;3.42;;
80539;SDS011;69869;48.036;15.780;2023-05-07T05:40:55;13.02;;;3.70;;
80539;SDS011;69869;48.036;15.780;2023-05-07T05:43:20;13.82;;;3.47;;
80539;SDS011;69869;48.036;15.780;2023-05-07T05:45:46;14.50;;;3.40;;
80539;SDS011;69869;48.036;15.780;2023-05-07T05:48:11;17.48;;;3.60;;
80539;SDS011;69869;48.036;15.780;2023-05-07T05:50:37;11.93;;;3.45;;
80539;SDS011;69869;48.036;15.780;2023-05-07T05:53:03;17.40;;;3.47;;
80539;SDS011;69869;48.036;15.780;2023-05-07T05:55:28;7.75;;;3.15;;
80539;SDS011;69869;48.036;15.780;2023-05-07T05:57:57;7.47;;;3.22;;
80539;SDS011;69869;48.036;15.780;2023-05-07T06:00:23;10.95;;;3.92;;
80539;SDS011;69869;48.036;15.780;2023-05-07T06:02:49;9.48;;;3.05;;
80539;SDS011;69869;48.036;15.780;2023-05-07T06:05:14;7.90;;;3.15;;
80539;SDS011;69869;48.036;15.780;2023-05-07T06:07:40;16.73;;;3.45;;
80539;SDS011;69869;48.036;15.780;2023-05-07T06:10:06;6.68;;;2.90;;
80539;SDS011;69869;48.036;15.780;2023-05-07T06:12:32;12.98;;;2.90;;
80539;SDS011;69869;48.036;15.780;2023-05-07T06:14:57;17.92;;;3.30;;
80539;SDS011;69869;48.036;15.780;2023-05-07T06:17:23;7.53;;;2.58;;
80539;SDS011;69869;48.036;15.780;2023-05-07T06:19:49;10.57;;;2.80;;
80539;SDS011;69869;48.036;15.780;2023-05-07T06:22:14;9.25;;;3.08;;
80539;SDS011;69869;48.036;15.780;2023-05-07T06:24:40;6.72;;;3.17;;
80539;SDS011;69869;48.036;15.780;2023-05-07T06:27:06;10.05;;;3.05;;
80539;SDS011;69869;48.036;15.780;2023-05-07T06:29:31;7.15;;;2.72;;
80539;SDS011;69869;48.036;15.780;2023-05-07T06:32:08;12.15;;;2.80;;
80539;SDS011;69869;48.036;15.780;2023-05-07T06:34:34;6.80;;;2.65;;
80539;SDS011;69869;48.036;15.780;2023-05-07T06:36:59;31.98;;;3.25;;
80539;SDS011;69869;48.036;15.780;2023-05-07T06:39:25;19.20;;;4.05;;
80539;SDS011;69869;48.036;15.780;2023-05-07T06:41:51;17.80;;;4.10;;
80539;SDS011;69869;48.036;15.780;2023-05-07T06:44:16;19.63;;;4.80;;
80539;SDS011;69869;48.036;15.780;2023-05-07T06:46:42;17.23;;;5.00;;
80539;SDS011;69869;48.036;15.780;2023-05-07T06:49:07;16.27;;;3.67;;
80539;SDS011;69869;48.036;15.780;2023-05-07T06:51:33;10.15;;;4.35;;
80539;SDS011;69869;48.036;15.780;2023-05-07T06:53:59;13.27;;;5.18;;
80539;SDS011;69869;48.036;15.780;2023-05-07T06:56:24;13.43;;;4.30;;
80539;SDS011;69869;48.036;15.780;2023-05-07T06:58:50;7.78;;;3.70;;
80539;SDS011;69869;48.036;15.780;2023-05-07T07:01:16;8.15;;;4.18;;
80539;SDS011;69869;48.036;15.780;2023-05-07T07:03:41;9.65;;;4.00;;
80539;SDS011;69869;48.036;15.780;2023-05-07T07:06:07;23.08;;;4.53;;
80539;SDS011;69869;48.036;15.780;2023-05-07T07:08:33;28.17;;;4.47;;
80539;SDS011;69869;48.036;15.780;2023-05-07T07:10:59;20.42;;;4.70;;
80539;SDS011;69869;48.036;15.780;2023-05-07T07:13:25;17.02;;;5.13;;
80539;SDS011;69869;48.036;15.780;2023-05-07T07:15:51;15.77;;;5.00;;
80539;SDS011;69869;48.036;15.780;2023-05-07T07:18:18;17.92;;;4.70;;
80539;SDS011;69869;48.036;15.780;2023-05-07T07:20:43;22.13;;;5.00;;
80539;SDS011;69869;48.036;15.780;2023-05-07T07:23:09;18.88;;;5.95;;
80539;SDS011;69869;48.036;15.780;2023-05-07T07:25:35;23.63;;;5.50;;
80539;SDS011;69869;48.036;15.780;2023-05-07T07:28:01;29.00;;;5.60;;
80539;SDS011;69869;48.036;15.780;2023-05-07T07:30:26;18.60;;;5.35;;
80539;SDS011;69869;48.036;15.780;2023-05-07T07:32:52;16.35;;;5.70;;
80539;SDS011;69869;48.036;15.780;2023-05-07T07:35:18;28.60;;;5.55;;
80539;SDS011;69869;48.036;15.780;2023-05-07T07:37:44;26.40;;;6.00;;
80539;SDS011;69869;48.036;15.780;2023-05-07T07:40:10;15.90;;;6.30;;
80539;SDS011;69869;48.036;15.780;2023-05-07T07:42:37;21.67;;;5.53;;
80539;SDS011;69869;48.036;15.780;2023-05-07T07:45:02;13.75;;;5.90;;
80539;SDS011;69869;48.036;15.780;2023-05-07T07:47:29;14.70;;;5.60;;
80539;SDS011;69869;48.036;15.780;2023-05-07T07:49:54;16.20;;;5.97;;
80539;SDS011;69869;48.036;15.780;2023-05-07T07:52:20;13.95;;;5.90;;
80539;SDS011;69869;48.036;15.780;2023-05-07T07:54:46;16.23;;;6.18;;
80539;SDS011;69869;48.036;15.780;2023-05-07T07:57:11;13.40;;;6.05;;
80539;SDS011;69869;48.036;15.780;2023-05-07T07:59:37;10.13;;;5.35;;
80539;SDS011;69869;48.036;15.780;2023-05-07T08:02:03;14.32;;;6.05;;
80539;SDS011;69869;48.036;15.780;2023-05-07T08:04:28;12.27;;;5.60;;
80539;SDS011;69869;48.036;15.780;2023-05-07T08:06:55;10.73;;;6.68;;
80539;SDS011;69869;48.036;15.780;2023-05-07T08:09:21;14.07;;;6.20;;
80539;SDS011;69869;48.036;15.780;2023-05-07T08:11:46;7.95;;;5.57;;
80539;SDS011;69869;48.036;15.780;2023-05-07T08:14:12;9.43;;;5.32;;
80539;SDS011;69869;48.036;15.780;2023-05-07T08:16:38;7.15;;;5.70;;
80539;SDS011;69869;48.036;15.780;2023-05-07T08:19:03;9.57;;;6.13;;
80539;SDS011;69869;48.036;15.780;2023-05-07T08:21:29;7.72;;;5.75;;
80539;SDS011;69869;48.036;15.780;2023-05-07T08:23:55;10.93;;;5.35;;
80539;SDS011;69869;48.036;15.780;2023-05-07T08:26:21;6.85;;;5.55;;
80539;SDS011;69869;48.036;15.780;2023-05-07T08:28:47;7.07;;;5.57;;
80539;SDS011;69869;48.036;15.780;2023-05-07T08:31:12;8.75;;;5.57;;
80539;SDS011;69869;48.036;15.780;2023-05-07T08:33:38;7.40;;;5.57;;
80539;SDS011;69869;48.036;15.780;2023-05-07T08:36:04;6.57;;;5.78;;
80539;SDS011;69869;48.036;15.780;2023-05-07T08:38:30;7.78;;;5.95;;
80539;SDS011;69869;48.036;15.780;2023-05-07T08:40:56;9.00;;;5.50;;
80539;SDS011;69869;48.036;15.780;2023-05-07T08:43:22;7.85;;;5.70;;
80539;SDS011;69869;48.036;15.780;2023-05-07T08:45:52;7.88;;;6.13;;
80539;SDS011;69869;48.036;15.780;2023-05-07T08:48:20;6.18;;;5.35;;
80539;SDS011;69869;48.036;15.780;2023-05-07T08:50:50;6.00;;;5.38;;
80539;SDS011;69869;48.036;15.780;2023-05-07T08:53:16;9.00;;;5.75;;
80539;SDS011;69869;48.036;15.780;2023-05-07T08:55:42;10.20;;;6.00;;
80539;SDS011;69869;48.036;15.780;2023-05-07T08:58:07;8.73;;;5.40;;
80539;SDS011;69869;48.036;15.780;2023-05-07T09:00:33;7.45;;;5.78;;
80539;SDS011;69869;48.036;15.780;2023-05-07T09:03:00;15.48;;;5.90;;
80539;SDS011;69869;48.036;15.780;2023-05-07T09:05:26;13.57;;;5.72;;
80539;SDS011;69869;48.036;15.780;2023-05-07T09:07:52;16.77;;;5.72;;
80539;SDS011;69869;48.036;15.780;2023-05-07T09:10:18;11.57;;;5.90;;
80539;SDS011;69869;48.036;15.780;2023-05-07T09:12:43;37.08;;;6.22;;
80539;SDS011;69869;48.036;15.780;2023-05-07T09:15:12;60.58;;;5.70;;
80539;SDS011;69869;48.036;15.780;2023-05-07T09:17:38;23.40;;;6.10;;
80539;SDS011;69869;48.036;15.780;2023-05-07T09:20:04;14.90;;;6.03;;
80539;SDS011;69869;48.036;15.780;2023-05-07T09:22:34;51.97;;;6.30;;
80539;SDS011;69869;48.036;15.780;2023-05-07T09:25:02;31.30;;;5.60;;
80539;SDS011;69869;48.036;15.780;2023-05-07T09:27:28;20.38;;;5.20;;
80539;SDS011;69869;48.036;15.780;2023-05-07T09:29:55;10.65;;;5.00;;
80539;SDS011;69869;48.036;15.780;2023-05-07T09:32:21;12.60;;;4.35;;
80539;SDS011;69869;48.036;15.780;2023-05-07T09:34:46;12.55;;;5.18;;
80539;SDS011;69869;48.036;15.780;2023-05-07T09:37:12;8.88;;;4.95;;
80539;SDS011;69869;48.036;15.780;2023-05-07T09:39:42;7.55;;;5.03;;
80539;SDS011;69869;48.036;15.780;2023-05-07T09:42:09;8.82;;;4.90;;
80539;SDS011;69869;48.036;15.780;2023-05-07T09:44:40;8.57;;;4.83;;
80539;SDS011;69869;48.036;15.780;2023-05-07T09:47:06;5.85;;;5.03;;
80539;SDS011;69869;48.036;15.780;2023-05-07T09:49:36;5.97;;;4.85;;
80539;SDS011;69869;48.036;15.780;2023-05-07T09:52:05;7.30;;;5.28;;
80539;SDS011;69869;48.036;15.780;2023-05-07T09:54:34;5.90;;;5.30;;
80539;SDS011;69869;48.036;15.780;2023-05-07T09:57:03;6.60;;;5.90;;
80539;SDS011;69869;48.036;15.780;2023-05-07T09:59:31;6.43;;;5.82;;
80539;SDS011;69869;48.036;15.780;2023-05-07T10:01:58;5.72;;;5.10;;
80539;SDS011;69869;48.036;15.780;2023-05-07T10:04:25;6.13;;;4.97;;
80539;SDS011;69869;48.036;15.780;2023-05-07T10:06:51;5.85;;;4.85;;
80539;SDS011;69869;48.036;15.780;2023-05-07T10:09:18;9.70;;;5.15;;
80539;SDS011;69869;48.036;15.780;2023-05-07T10:11:44;10.10;;;5.25;;
80539;SDS011;69869;48.036;15.780;2023-05-07T10:14:13;8.35;;;5.13;;
80539;SDS011;69869;48.036;15.780;2023-05-07T10:16:39;11.32;;;5.38;;
80539;SDS011;69869;48.036;15.780;2023-05-07T10:19:06;11.68;;;5.78;;
80539;SDS011;69869;48.036;15.780;2023-05-07T10:21:38;7.68;;;5.22;;
80539;SDS011;69869;48.036;15.780;2023-05-07T10:24:07;8.75;;;5.03;;
80539;SDS011;69869;48.036;15.780;2023-05-07T10:26:39;9.15;;;5.32;;
80539;SDS011;69869;48.036;15.780;2023-05-07T10:32:25;8.82;;;4.82;;
80539;SDS011;69869;48.036;15.780;2023-05-07T11:05:05;9.18;;;7.72;;
80539;SDS011;69869;48.036;15.780;2023-05-07T11:21:41;13.07;;;9.52;;
80539;SDS011;69869;48.036;15.780;2023-05-07T11:24:07;11.77;;;9.82;;
80539;SDS011;69869;48.036;15.780;2023-05-07T11:29:20;14.32;;;10.50;;
80539;SDS011;69869;48.036;15.780;2023-05-07T11:31:50;12.93;;;10.35;;
80539;SDS011;69869;48.036;15.780;2023-05-07T11:34:20;10.27;;;9.17;;
80539;SDS011;69869;48.036;15.780;2023-05-07T11:36:50;10.50;;;9.40;;
80539;SDS011;69869;48.036;15.780;2023-05-07T11:39:29;11.77;;;8.90;;
80539;SDS011;69869;48.036;15.780;2023-05-07T11:47:18;11.13;;;8.63;;
80539;SDS011;69869;48.036;15.780;2023-05-07T11:49:48;9.82;;;8.55;;
80539;SDS011;69869;48.036;15.780;2023-05-07T11:52:14;12.60;;;9.48;;
80539;SDS011;69869;48.036;15.780;2023-05-07T11:54:41;11.73;;;8.82;;
80539;SDS011;69869;48.036;15.780;2023-05-07T11:57:16;10.68;;;8.18;;
80539;SDS011;69869;48.036;15.780;2023-05-07T11:59:42;10.20;;;8.20;;
80539;SDS011;69869;48.036;15.780;2023-05-07T12:02:16;9.93;;;8.23;;
80539;SDS011;69869;48.036;15.780;2023-05-07T12:04:42;12.13;;;9.38;;
80539;SDS011;69869;48.036;15.780;2023-05-07T12:07:12;13.90;;;8.80;;
80539;SDS011;69869;48.036;15.780;2023-05-07T12:09:39;14.15;;;9.20;;
80539;SDS011;69869;48.036;15.780;2023-05-07T12:12:08;10.18;;;8.90;;
80539;SDS011;69869;48.036;15.780;2023-05-07T12:14:41;10.70;;;8.13;;
80539;SDS011;69869;48.036;15.780;2023-05-07T12:17:07;12.98;;;7.95;;
80539;SDS011;69869;48.036;15.780;2023-05-07T12:19:34;12.38;;;8.73;;
80539;SDS011;69869;48.036;15.780;2023-05-07T12:22:02;12.70;;;9.40;;
80539;SDS011;69869;48.036;15.780;2023-05-07T12:24:28;11.15;;;8.90;;
80539;SDS011;69869;48.036;15.780;2023-05-07T12:26:54;11.85;;;9.35;;
80539;SDS011;69869;48.036;15.780;2023-05-07T12:29:23;10.75;;;9.00;;
80539;SDS011;69869;48.036;15.780;2023-05-07T12:31:52;10.73;;;8.90;;
80539;SDS011;69869;48.036;15.780;2023-05-07T12:34:17;10.63;;;9.13;;
80539;SDS011;69869;48.036;15.780;2023-05-07T12:36:43;12.40;;;8.52;;
80539;SDS011;69869;48.036;15.780;2023-05-07T12:39:09;10.43;;;8.07;;
80539;SDS011;69869;48.036;15.780;2023-05-07T12:41:54;9.20;;;7.50;;
80539;SDS011;69869;48.036;15.780;2023-05-07T12:44:22;10.45;;;8.45;;
80539;SDS011;69869;48.036;15.780;2023-05-07T12:46:49;10.40;;;8.30;;
80539;SDS011;69869;48.036;15.780;2023-05-07T12:49:15;9.43;;;8.40;;
80539;SDS011;69869;48.036;15.780;2023-05-07T12:51:41;11.15;;;8.23;;
80539;SDS011;69869;48.036;15.780;2023-05-07T12:54:07;9.80;;;8.52;;
80539;SDS011;69869;48.036;15.780;2023-05-07T12:56:35;9.57;;;7.82;;
80539;SDS011;69869;48.036;15.780;2023-05-07T12:59:01;10.07;;;8.70;;
80539;SDS011;69869;48.036;15.780;2023-05-07T13:01:30;12.55;;;9.02;;
80539;SDS011;69869;48.036;15.780;2023-05-07T13:04:00;11.13;;;8.70;;
80539;SDS011;69869;48.036;15.780;2023-05-07T13:06:26;11.73;;;8.48;;
80539;SDS011;69869;48.036;15.780;2023-05-07T13:08:52;15.18;;;9.07;;
80539;SDS011;69869;48.036;15.780;2023-05-07T13:11:18;11.02;;;8.13;;
80539;SDS011;69869;48.036;15.780;2023-05-07T13:13:44;9.38;;;7.90;;
80539;SDS011;69869;48.036;15.780;2023-05-07T13:16:10;9.40;;;6.90;;
80539;SDS011;69869;48.036;15.780;2023-05-07T13:18:37;8.65;;;7.18;;
80539;SDS011;69869;48.036;15.780;2023-05-07T13:21:04;8.38;;;7.38;;
80539;SDS011;69869;48.036;15.780;2023-05-07T13:23:30;9.95;;;7.95;;
80539;SDS011;69869;48.036;15.780;2023-05-07T13:33:41;9.20;;;8.25;;
80539;SDS011;69869;48.036;15.780;2023-05-07T13:38:42;9.52;;;7.32;;
80539;SDS011;69869;48.036;15.780;2023-05-07T13:41:08;10.57;;;8.68;;
80539;SDS011;69869;48.036;15.780;2023-05-07T13:43:34;10.55;;;8.02;;
80539;SDS011;69869;48.036;15.780;2023-05-07T13:46:00;12.18;;;7.80;;
80539;SDS011;69869;48.036;15.780;2023-05-07T13:48:26;8.63;;;7.65;;
80539;SDS011;69869;48.036;15.780;2023-05-07T13:50:53;10.05;;;7.40;;
80539;SDS011;69869;48.036;15.780;2023-05-07T13:53:19;8.95;;;7.55;;
80539;SDS011;69869;48.036;15.780;2023-05-07T13:55:44;10.20;;;8.27;;
80539;SDS011;69869;48.036;15.780;2023-05-07T13:58:10;10.52;;;8.02;;
80539;SDS011;69869;48.036;15.780;2023-05-07T14:00:36;9.10;;;7.30;;
80539;SDS011;69869;48.036;15.780;2023-05-07T14:03:02;9.15;;;7.00;;
80539;SDS011;69869;48.036;15.780;2023-05-07T14:05:29;7.50;;;6.65;;
80539;SDS011;69869;48.036;15.780;2023-05-07T14:07:55;8.68;;;7.72;;
80539;SDS011;69869;48.036;15.780;2023-05-07T14:10:22;9.18;;;7.20;;
80539;SDS011;69869;48.036;15.780;2023-05-07T14:12:48;7.68;;;6.60;;
80539;SDS011;69869;48.036;15.780;2023-05-07T14:15:14;7.82;;;6.78;;
80539;SDS011;69869;48.036;15.780;2023-05-07T14:17:41;9.73;;;7.50;;
80539;SDS011;69869;48.036;15.780;2023-05-07T14:20:07;8.95;;;6.80;;
80539;SDS011;69869;48.036;15.780;2023-05-07T14:22:33;8.82;;;7.47;;
80539;SDS011;69869;48.036;15.780;2023-05-07T14:24:59;8.57;;;7.13;;
80539;SDS011;69869;48.036;15.780;2023-05-07T14:27:25;9.23;;;6.88;;
80539;SDS011;69869;48.036;15.780;2023-05-07T14:29:50;10.20;;;6.88;;
80539;SDS011;69869;48.036;15.780;2023-05-07T14:32:17;7.90;;;7.07;;
80539;SDS011;69869;48.036;15.780;2023-05-07T14:34:43;6.95;;;6.13;;
80539;SDS011;69869;48.036;15.780;2023-05-07T14:37:09;8.77;;;6.60;;
80539;SDS011;69869;48.036;15.780;2023-05-07T14:39:35;8.10;;;6.50;;
80539;SDS011;69869;48.036;15.780;2023-05-07T14:42:01;9.52;;;6.63;;
80539;SDS011;69869;48.036;15.780;2023-05-07T14:44:26;8.40;;;6.30;;
80539;SDS011;69869;48.036;15.780;2023-05-07T14:46:52;6.65;;;5.97;;
80539;SDS011;69869;48.036;15.780;2023-05-07T14:49:18;7.00;;;6.30;;
80539;SDS011;69869;48.036;15.780;2023-05-07T14:51:44;10.73;;;6.82;;
80539;SDS011;69869;48.036;15.780;2023-05-07T14:54:10;7.50;;;6.50;;
80539;SDS011;69869;48.036;15.780;2023-05-07T14:56:36;7.50;;;6.30;;
80539;SDS011;69869;48.036;15.780;2023-05-07T14:59:02;10.05;;;6.70;;
80539;SDS011;69869;48.036;15.780;2023-05-07T15:01:28;9.23;;;6.70;;
80539;SDS011;69869;48.036;15.780;2023-05-07T15:03:54;7.57;;;6.00;;
80539;SDS011;69869;48.036;15.780;2023-05-07T15:06:20;8.52;;;7.10;;
80539;SDS011;69869;48.036;15.780;2023-05-07T15:08:46;11.05;;;8.63;;
80539;SDS011;69869;48.036;15.780;2023-05-07T15:11:13;9.57;;;7.80;;
80539;SDS011;69869;48.036;15.780;2023-05-07T15:13:39;8.20;;;6.70;;
80539;SDS011;69869;48.036;15.780;2023-05-07T15:16:04;8.40;;;7.30;;
80539;SDS011;69869;48.036;15.780;2023-05-07T15:18:30;9.23;;;6.47;;
80539;SDS011;69869;48.036;15.780;2023-05-07T15:20:56;8.07;;;6.20;;
80539;SDS011;69869;48.036;15.780;2023-05-07T15:23:22;6.88;;;5.55;;
80539;SDS011;69869;48.036;15.780;2023-05-07T15:25:48;7.07;;;6.20;;
80539;SDS011;69869;48.036;15.780;2023-05-07T15:28:14;7.20;;;5.82;;